createdAt,value
2023-03-24T00:01:20.064Z,14.60
2023-03-24T00:03:48.805Z,14.50
2023-03-24T00:06:18.876Z,14.50
2023-03-24T00:08:48.152Z,14.60
2023-03-24T00:11:18.475Z,14.50
2023-03-24T00:13:50.200Z,14.50
2023-03-24T00:16:20.136Z,14.50
2023-03-24T00:18:52.777Z,14.50
2023-03-24T00:21:23.627Z,14.60
2023-03-24T00:23:54.328Z,14.50
2023-03-24T00:26:24.886Z,14.50
2023-03-24T00:28:56.940Z,14.50
2023-03-24T00:31:26.466Z,14.50
2023-03-24T00:33:55.184Z,14.60
2023-03-24T00:36:25.735Z,14.60
2023-03-24T00:38:55.355Z,14.60
2023-03-24T00:41:26.681Z,14.60
2023-03-24T00:43:58.632Z,14.50
2023-03-24T00:46:30.957Z,14.60
2023-03-24T00:49:03.536Z,14.50
2023-03-24T00:51:33.634Z,14.60
2023-03-24T00:54:02.518Z,14.50
2023-03-24T00:56:34.422Z,14.50
2023-03-24T00:59:04.949Z,14.50
2023-03-24T01:01:36.529Z,14.50
2023-03-24T01:04:06.960Z,14.50
2023-03-24T01:06:37.421Z,14.50
2023-03-24T01:09:07.069Z,14.50
2023-03-24T01:11:39.755Z,14.50
2023-03-24T01:14:10.400Z,14.50
2023-03-24T01:16:38.814Z,14.40
2023-03-24T01:19:09.099Z,14.50
2023-03-24T01:21:37.856Z,14.40
2023-03-24T01:24:07.730Z,14.40
2023-03-24T01:26:36.053Z,14.30
2023-03-24T01:29:04.330Z,14.30
2023-03-24T01:31:33.886Z,14.30
2023-03-24T01:34:02.109Z,14.40
2023-03-24T01:36:30.326Z,14.40
2023-03-24T01:39:01.147Z,14.50
2023-03-24T01:41:33.921Z,14.50
2023-03-24T01:44:02.042Z,14.50
2023-03-24T01:46:33.339Z,14.50
2023-03-24T01:49:05.932Z,14.60
2023-03-24T01:51:39.723Z,14.60
2023-03-24T01:54:12.721Z,14.60
2023-03-24T01:56:43.911Z,14.60
2023-03-24T01:59:16.106Z,14.60
2023-03-24T02:02:10.299Z,14.60
2023-03-24T02:04:50.354Z,14.60
2023-03-24T02:07:25.492Z,14.60
2023-03-24T02:09:53.720Z,14.60
2023-03-24T02:12:21.879Z,14.60
2023-03-24T02:14:51.459Z,14.60
2023-03-24T02:17:42.562Z,14.60
2023-03-24T02:20:59.463Z,14.60
2023-03-24T02:23:53.148Z,14.60
2023-03-24T02:26:53.766Z,14.70
2023-03-24T02:30:06.942Z,14.70
2023-03-24T02:33:08.351Z,14.70
2023-03-24T02:36:09.800Z,14.70
2023-03-24T02:39:11.189Z,14.70
2023-03-24T02:41:46.779Z,14.70
2023-03-24T02:44:22.748Z,14.70
2023-03-24T02:46:56.029Z,14.70
2023-03-24T02:49:32.998Z,14.70
2023-03-24T02:52:06.096Z,14.70
2023-03-24T02:54:44.726Z,14.60
2023-03-24T02:57:20.110Z,14.70
2023-03-24T03:00:16.695Z,14.70
2023-03-24T03:03:10.942Z,14.70
2023-03-24T03:05:46.319Z,14.70
2023-03-24T03:08:21.115Z,14.70
2023-03-24T03:10:51.697Z,14.70
2023-03-24T03:13:25.419Z,14.80
2023-03-24T03:15:57.184Z,14.80
2023-03-24T03:18:33.008Z,14.80
2023-03-24T03:21:07.283Z,14.80
2023-03-24T03:23:38.705Z,14.90
2023-03-24T03:26:12.416Z,14.90
2023-03-24T03:28:50.099Z,14.80
2023-03-24T03:31:23.707Z,14.80
2023-03-24T03:33:57.935Z,14.80
2023-03-24T03:36:30.352Z,14.80
2023-03-24T03:39:04.161Z,14.80
2023-03-24T03:41:33.079Z,14.80
2023-03-24T03:44:02.888Z,14.80
2023-03-24T03:46:31.329Z,14.80
2023-03-24T03:48:59.839Z,14.80
2023-03-24T03:51:28.125Z,14.80
2023-03-24T03:54:01.205Z,14.80
2023-03-24T03:56:34.614Z,14.80
2023-03-24T03:59:29.852Z,14.70
2023-03-24T04:02:00.639Z,14.70
2023-03-24T04:05:05.822Z,14.70
2023-03-24T04:08:15.397Z,14.70
2023-03-24T04:11:26.789Z,14.70
2023-03-24T04:14:41.197Z,14.80
2023-03-24T04:17:45.416Z,14.80
2023-03-24T04:20:24.269Z,14.80
2023-03-24T04:23:09.231Z,14.80
2023-03-24T04:25:49.841Z,14.80
2023-03-24T04:28:26.578Z,14.80
2023-03-24T04:31:04.893Z,14.80
2023-03-24T04:33:39.274Z,14.80
2023-03-24T04:36:18.108Z,14.90
2023-03-24T04:39:06.172Z,14.80
2023-03-24T04:41:43.023Z,14.90
2023-03-24T04:44:21.827Z,14.90
2023-03-24T04:47:14.761Z,14.90
2023-03-24T04:50:02.258Z,14.90
2023-03-24T04:52:31.128Z,14.90
2023-03-24T04:55:01.044Z,15.00
2023-03-24T04:57:29.114Z,15.00
2023-03-24T05:00:02.504Z,14.70
2023-03-24T05:02:33.167Z,14.50
2023-03-24T05:05:23.737Z,14.30
2023-03-24T05:07:51.760Z,14.00
2023-03-24T05:10:21.892Z,13.90
2023-03-24T05:12:55.430Z,13.80
2023-03-24T05:15:29.412Z,13.80
2023-03-24T05:18:10.518Z,13.90
2023-03-24T05:20:38.700Z,13.80
2023-03-24T05:23:17.831Z,13.90
2023-03-24T05:25:47.592Z,13.80
2023-03-24T05:28:17.183Z,13.90
2023-03-24T05:30:45.520Z,13.80
2023-03-24T05:33:25.500Z,13.80
2023-03-24T05:35:53.823Z,13.80
2023-03-24T05:38:21.959Z,13.80
2023-03-24T05:40:57.716Z,13.70
2023-03-24T05:43:28.531Z,13.70
2023-03-24T05:46:05.389Z,13.70
2023-03-24T05:48:36.527Z,13.60
2023-03-24T05:51:16.130Z,13.60
2023-03-24T05:53:44.884Z,13.50
2023-03-24T05:56:18.960Z,13.50
2023-03-24T05:59:04.662Z,13.50
2023-03-24T06:02:08.491Z,13.40
2023-03-24T06:04:49.200Z,13.50
2023-03-24T06:07:20.670Z,13.50
2023-03-24T06:09:52.646Z,13.30
2023-03-24T06:12:22.605Z,13.30
2023-03-24T06:15:01.463Z,13.20
2023-03-24T06:17:30.833Z,13.10
2023-03-24T06:20:05.468Z,13.10
2023-03-24T06:22:47.396Z,13.10
2023-03-24T06:25:20.278Z,13.10
2023-03-24T06:28:03.938Z,13.10
2023-03-24T06:30:33.237Z,13.10
2023-03-24T06:33:01.701Z,13.10
2023-03-24T06:35:31.446Z,13.10
2023-03-24T06:38:05.194Z,13.10
2023-03-24T06:40:33.733Z,13.10
2023-03-24T06:43:01.929Z,13.20
2023-03-24T06:45:31.333Z,13.20
2023-03-24T06:47:59.830Z,13.30
2023-03-24T06:50:33.023Z,13.30
2023-03-24T06:53:04.137Z,13.20
2023-03-24T06:55:34.514Z,13.10
2023-03-24T06:58:03.462Z,13.00
2023-03-24T07:00:38.525Z,12.90
2023-03-24T07:03:23.439Z,12.90
2023-03-24T07:06:14.747Z,12.80
2023-03-24T07:08:45.925Z,12.70
2023-03-24T07:11:14.628Z,12.60
2023-03-24T07:13:50.564Z,12.70
2023-03-24T07:16:18.707Z,12.70
2023-03-24T07:18:50.192Z,12.60
2023-03-24T07:21:18.417Z,12.70
2023-03-24T07:23:51.405Z,12.70
2023-03-24T07:26:23.033Z,12.70
2023-03-24T07:29:06.954Z,12.70
2023-03-24T07:31:53.143Z,12.90
2023-03-24T07:34:21.970Z,12.80
2023-03-24T07:36:50.049Z,12.90
2023-03-24T07:39:20.864Z,12.90
2023-03-24T07:41:49.173Z,13.00
2023-03-24T07:44:27.682Z,13.10
2023-03-24T07:46:55.888Z,13.20
2023-03-24T07:49:24.658Z,13.20
2023-03-24T07:52:06.379Z,13.30
2023-03-24T07:54:39.717Z,13.30
2023-03-24T07:57:09.762Z,13.30
2023-03-24T07:59:39.426Z,13.20
2023-03-24T08:02:18.589Z,13.30
2023-03-24T08:05:10.531Z,13.30
2023-03-24T08:07:40.208Z,13.30
2023-03-24T08:10:13.015Z,13.40
2023-03-24T08:12:41.381Z,13.50
2023-03-24T08:15:10.552Z,13.50
2023-03-24T08:17:38.774Z,13.50
2023-03-24T08:20:11.902Z,13.50
2023-03-24T08:22:40.555Z,13.60
2023-03-24T08:25:11.273Z,13.50
2023-03-24T08:27:44.696Z,13.50
2023-03-24T08:30:15.978Z,13.40
2023-03-24T08:32:46.223Z,13.50
2023-03-24T08:35:15.748Z,13.70
2023-03-24T08:37:45.339Z,13.90
2023-03-24T08:40:18.268Z,14.00
2023-03-24T08:42:49.649Z,14.00
2023-03-24T08:45:20.939Z,14.10
2023-03-24T08:47:50.532Z,14.00
2023-03-24T08:50:20.338Z,13.90
2023-03-24T08:52:48.890Z,13.70
2023-03-24T08:55:18.654Z,13.80
2023-03-24T08:57:48.673Z,14.00
2023-03-24T09:00:18.444Z,14.10
2023-03-24T09:02:48.678Z,14.10
2023-03-24T09:05:20.028Z,14.20
2023-03-24T09:07:52.745Z,14.10
2023-03-24T09:10:22.412Z,14.20
2023-03-24T09:12:51.763Z,14.20
2023-03-24T09:15:19.919Z,14.20
2023-03-24T09:17:48.009Z,14.10
2023-03-24T09:20:18.603Z,14.00
2023-03-24T09:22:47.843Z,14.00
2023-03-24T09:25:17.750Z,14.10
2023-03-24T09:27:46.497Z,14.10
2023-03-24T09:30:18.413Z,14.20
2023-03-24T09:32:47.010Z,14.20
2023-03-24T09:35:16.067Z,14.20
2023-03-24T09:37:44.730Z,14.20
2023-03-24T09:40:21.806Z,14.20
2023-03-24T09:42:56.716Z,14.20
2023-03-24T09:45:29.366Z,14.30
2023-03-24T09:48:01.154Z,14.30
2023-03-24T09:50:34.447Z,14.30
2023-03-24T09:53:09.185Z,14.50
2023-03-24T09:55:40.221Z,14.50
2023-03-24T09:58:13.000Z,14.60
2023-03-24T10:00:43.706Z,14.70
2023-03-24T10:03:20.340Z,14.60
2023-03-24T10:05:56.355Z,14.60
2023-03-24T10:08:32.057Z,14.60
2023-03-24T10:11:04.471Z,14.70
2023-03-24T10:13:48.980Z,14.70
2023-03-24T10:16:23.802Z,14.70
2023-03-24T10:18:59.291Z,14.80
2023-03-24T10:21:28.741Z,14.80
2023-03-24T10:24:06.402Z,14.70
2023-03-24T10:26:41.591Z,14.70
2023-03-24T10:29:23.977Z,14.80
2023-03-24T10:31:58.059Z,14.80
2023-03-24T10:34:32.429Z,14.90
2023-03-24T10:37:03.021Z,14.90
2023-03-24T10:39:41.951Z,15.00
2023-03-24T10:42:18.336Z,15.10
2023-03-24T10:44:48.153Z,15.00
2023-03-24T10:47:27.090Z,15.00
2023-03-24T10:49:58.011Z,15.10
2023-03-24T10:52:26.400Z,15.10
2023-03-24T10:54:59.197Z,15.20
2023-03-24T10:57:28.682Z,15.30
2023-03-24T10:59:59.692Z,15.40
2023-03-24T11:02:31.765Z,15.30
2023-03-24T11:05:18.933Z,15.20
2023-03-24T11:07:49.498Z,15.20
2023-03-24T11:10:20.993Z,15.20
2023-03-24T11:13:03.927Z,15.20
2023-03-24T11:15:33.508Z,15.30
2023-03-24T11:18:08.833Z,15.30
2023-03-24T11:20:40.508Z,15.40
2023-03-24T11:23:13.010Z,15.30
2023-03-24T11:25:43.209Z,15.30
2023-03-24T11:28:17.483Z,15.30
2023-03-24T11:30:48.495Z,15.40
2023-03-24T11:33:35.371Z,15.40
2023-03-24T11:36:31.331Z,15.50
2023-03-24T11:39:11.497Z,15.50
2023-03-24T11:41:42.579Z,15.50
2023-03-24T11:44:18.833Z,15.60
2023-03-24T11:46:48.988Z,15.70
2023-03-24T11:49:21.149Z,15.70
2023-03-24T11:51:54.120Z,15.80
2023-03-24T11:54:28.761Z,16.00
2023-03-24T11:56:59.804Z,16.10
2023-03-24T11:59:34.537Z,16.30
2023-03-24T12:02:20.208Z,16.30
2023-03-24T12:05:27.069Z,16.30
2023-03-24T12:08:24.145Z,16.40
2023-03-24T12:11:04.422Z,16.40
2023-03-24T12:13:36.511Z,16.50
2023-03-24T12:16:40.167Z,16.60
2023-03-24T12:19:43.162Z,16.60
2023-03-24T12:22:27.874Z,16.70
2023-03-24T12:25:19.246Z,16.90
2023-03-24T12:27:57.722Z,17.00
2023-03-24T12:30:32.148Z,17.20
2023-03-24T12:33:08.594Z,17.20
2023-03-24T12:35:52.197Z,17.30
2023-03-24T12:38:32.256Z,17.40
2023-03-24T12:41:13.571Z,17.60
2023-03-24T12:43:51.180Z,17.70
2023-03-24T12:46:46.669Z,17.70
2023-03-24T12:49:41.105Z,17.70
2023-03-24T12:52:23.792Z,17.70
2023-03-24T12:55:04.098Z,18.00
2023-03-24T12:57:38.956Z,17.90
2023-03-24T13:00:14.339Z,17.80
2023-03-24T13:02:48.052Z,17.80
2023-03-24T13:05:21.067Z,17.80
2023-03-24T13:07:54.152Z,17.50
2023-03-24T13:10:26.646Z,17.50
2023-03-24T13:13:01.573Z,17.50
2023-03-24T13:15:34.573Z,17.70
2023-03-24T13:18:16.091Z,17.70
2023-03-24T13:20:47.221Z,17.50
2023-03-24T13:23:32.184Z,17.40
2023-03-24T13:26:09.967Z,17.50
2023-03-24T13:28:45.176Z,17.70
2023-03-24T13:31:14.790Z,17.60
2023-03-24T13:33:44.934Z,17.40
2023-03-24T13:36:36.224Z,17.30
2023-03-24T13:39:10.176Z,17.10
2023-03-24T13:41:39.687Z,17.10
2023-03-24T13:44:18.452Z,17.40
2023-03-24T13:47:03.935Z,17.90
2023-03-24T13:49:32.889Z,18.10
2023-03-24T13:52:06.357Z,18.00
2023-03-24T13:54:38.545Z,18.00
2023-03-24T13:57:10.521Z,17.90
2023-03-24T13:59:58.264Z,17.80
2023-03-24T14:02:43.048Z,17.70
2023-03-24T14:05:12.823Z,17.70
2023-03-24T14:07:47.170Z,17.50
2023-03-24T14:10:43.276Z,17.40
2023-03-24T14:13:34.900Z,17.10
2023-03-24T14:16:36.651Z,16.90
2023-03-24T14:19:20.903Z,16.70
2023-03-24T14:21:53.806Z,16.80
2023-03-24T14:24:26.998Z,17.00
2023-03-24T14:26:55.237Z,17.40
2023-03-24T14:29:51.431Z,17.70
2023-03-24T14:32:23.117Z,17.60
2023-03-24T14:34:54.045Z,17.30
2023-03-24T14:37:23.014Z,17.00
2023-03-24T14:39:52.089Z,16.80
2023-03-24T14:42:57.271Z,16.60
2023-03-24T14:46:03.286Z,16.40
2023-03-24T14:48:44.630Z,16.40
2023-03-24T14:51:37.415Z,16.30
2023-03-24T14:54:08.536Z,16.10
2023-03-24T14:56:41.124Z,16.10
2023-03-24T14:59:20.944Z,16.20
2023-03-24T15:02:00.511Z,16.90
2023-03-24T15:04:30.696Z,17.70
2023-03-24T15:06:58.720Z,18.00
2023-03-24T15:09:27.990Z,17.70
2023-03-24T15:12:00.159Z,17.30
2023-03-24T15:14:28.511Z,16.90
2023-03-24T15:16:59.302Z,16.60
2023-03-24T15:19:30.890Z,16.50
2023-03-24T15:22:01.980Z,16.50
2023-03-24T15:24:35.753Z,16.60
2023-03-24T15:27:33.379Z,16.80
2023-03-24T15:30:01.588Z,16.90
2023-03-24T15:32:39.332Z,17.10
2023-03-24T15:35:15.471Z,17.10
2023-03-24T15:37:48.204Z,17.10
2023-03-24T15:40:34.298Z,17.10
2023-03-24T15:43:04.201Z,17.00
2023-03-24T15:45:34.140Z,17.00
2023-03-24T15:48:06.902Z,17.00
2023-03-24T15:50:38.622Z,16.90
2023-03-24T15:53:22.409Z,16.80
2023-03-24T15:56:04.245Z,16.70
2023-03-24T15:58:48.267Z,16.50
2023-03-24T16:01:19.937Z,16.40
2023-03-24T16:03:49.309Z,16.40
2023-03-24T16:06:30.730Z,16.20
2023-03-24T16:09:04.841Z,16.00
2023-03-24T16:11:32.850Z,16.00
2023-03-24T16:14:21.849Z,15.90
2023-03-24T16:16:50.090Z,15.90
2023-03-24T16:19:18.688Z,15.80
2023-03-24T16:21:48.173Z,15.80
2023-03-24T16:24:17.194Z,15.70
2023-03-24T16:26:48.398Z,15.40
2023-03-24T16:29:19.107Z,15.30
2023-03-24T16:31:49.093Z,15.20
2023-03-24T16:34:18.591Z,15.10
2023-03-24T16:36:48.301Z,15.10
2023-03-24T16:39:18.065Z,15.00
2023-03-24T16:41:47.054Z,14.90
2023-03-24T16:44:17.107Z,14.60
2023-03-24T16:46:46.917Z,14.30
2023-03-24T16:49:16.670Z,14.10
2023-03-24T16:51:45.239Z,13.90
2023-03-24T16:54:15.236Z,13.90
2023-03-24T16:56:43.355Z,13.90
2023-03-24T16:59:14.856Z,13.80
2023-03-24T17:01:45.786Z,13.80
2023-03-24T17:04:16.204Z,13.80
2023-03-24T17:06:47.020Z,13.90
2023-03-24T17:09:16.592Z,13.90
2023-03-24T17:11:46.592Z,14.10
2023-03-24T17:14:14.903Z,14.10
2023-03-24T17:16:45.757Z,14.10
2023-03-24T17:19:15.082Z,14.00
2023-03-24T17:21:45.894Z,13.80
2023-03-24T17:24:16.330Z,13.60
2023-03-24T17:26:50.150Z,13.50
2023-03-24T17:29:18.497Z,13.40
2023-03-24T17:31:49.525Z,13.40
2023-03-24T17:34:21.731Z,13.40
2023-03-24T17:36:52.370Z,13.30
2023-03-24T17:39:22.577Z,13.30
2023-03-24T17:41:51.220Z,13.30
2023-03-24T17:44:19.324Z,13.20
2023-03-24T17:46:47.410Z,13.30
2023-03-24T17:49:16.329Z,13.20
2023-03-24T17:51:44.300Z,13.10
2023-03-24T17:54:13.279Z,13.10
2023-03-24T17:56:42.724Z,13.10
2023-03-24T17:59:10.964Z,13.10
2023-03-24T18:01:40.327Z,13.00
2023-03-24T18:04:08.477Z,13.00
2023-03-24T18:06:38.350Z,13.00
2023-03-24T18:09:07.348Z,13.00
2023-03-24T18:11:35.470Z,13.00
2023-03-24T18:14:05.235Z,13.00
2023-03-24T18:16:35.334Z,12.90
2023-03-24T18:19:03.820Z,12.90
2023-03-24T18:21:31.883Z,12.90
2023-03-24T18:23:59.926Z,12.80
2023-03-24T18:26:28.016Z,12.80
2023-03-24T18:28:56.219Z,12.70
2023-03-24T18:31:26.188Z,12.70
2023-03-24T18:33:55.793Z,12.70
2023-03-24T18:36:27.179Z,12.70
2023-03-24T18:38:59.248Z,12.70
2023-03-24T18:41:28.359Z,12.80
2023-03-24T18:43:57.026Z,12.80
2023-03-24T18:46:27.437Z,12.80
2023-03-24T18:48:55.680Z,12.90
2023-03-24T18:51:25.422Z,12.90
2023-03-24T18:53:53.614Z,12.90
2023-03-24T18:56:22.504Z,13.00
2023-03-24T18:58:51.941Z,12.90
2023-03-24T19:01:22.699Z,12.90
2023-03-24T19:03:53.311Z,12.90
2023-03-24T19:06:21.378Z,12.90
2023-03-24T19:08:52.310Z,12.80
2023-03-24T19:11:20.641Z,12.80
2023-03-24T19:13:50.612Z,12.80
2023-03-24T19:16:19.527Z,12.70
2023-03-24T19:18:48.351Z,12.70
2023-03-24T19:21:18.111Z,12.70
2023-03-24T19:23:47.025Z,12.70
2023-03-24T19:26:16.942Z,12.70
2023-03-24T19:28:47.153Z,12.70
2023-03-24T19:31:18.426Z,12.70
2023-03-24T19:33:47.847Z,12.70
2023-03-24T19:36:18.176Z,12.70
2023-03-24T19:38:46.195Z,12.70
2023-03-24T19:41:15.512Z,12.60
2023-03-24T19:43:43.575Z,12.60
2023-03-24T19:46:12.114Z,12.70
2023-03-24T19:48:40.726Z,12.70
2023-03-24T19:51:08.722Z,12.70
2023-03-24T19:53:38.136Z,12.60
2023-03-24T19:56:07.032Z,12.60
2023-03-24T19:58:35.241Z,12.60
2023-03-24T20:01:03.345Z,12.60
2023-03-24T20:03:31.938Z,12.60
2023-03-24T20:06:05.057Z,12.60
2023-03-24T20:08:33.144Z,12.60
2023-03-24T20:11:03.567Z,12.60
2023-03-24T20:13:31.702Z,12.70
2023-03-24T20:15:59.738Z,12.70
2023-03-24T20:18:27.819Z,12.70
2023-03-24T20:20:56.433Z,12.70
2023-03-24T20:23:24.661Z,12.80
2023-03-24T20:25:52.795Z,12.80
2023-03-24T20:28:22.345Z,12.80
2023-03-24T20:30:52.136Z,12.80
2023-03-24T20:33:20.787Z,12.90
2023-03-24T20:35:49.059Z,12.80
2023-03-24T20:38:17.288Z,12.90
2023-03-24T20:40:45.422Z,12.90
2023-03-24T20:43:13.953Z,12.90
2023-03-24T20:45:43.413Z,12.80
2023-03-24T20:48:11.495Z,12.80
2023-03-24T20:50:39.656Z,12.80
2023-03-24T20:53:07.674Z,12.80
2023-03-24T20:55:35.862Z,12.80
2023-03-24T20:58:08.015Z,12.90
2023-03-24T21:00:37.825Z,12.80
2023-03-24T21:03:07.457Z,12.80
2023-03-24T21:05:35.595Z,12.80
2023-03-24T21:08:03.628Z,12.80
2023-03-24T21:10:31.779Z,12.80
2023-03-24T21:12:59.873Z,12.80
2023-03-24T21:15:28.834Z,12.70
2023-03-24T21:17:57.601Z,12.70
2023-03-24T21:20:28.360Z,12.70
2023-03-24T21:22:56.494Z,12.70
2023-03-24T21:25:26.755Z,12.70
2023-03-24T21:27:55.395Z,12.70
2023-03-24T21:30:23.901Z,12.70
2023-03-24T21:32:53.918Z,12.70
2023-03-24T21:35:22.861Z,12.70
2023-03-24T21:37:53.949Z,12.60
2023-03-24T21:40:24.147Z,12.60
2023-03-24T21:42:53.158Z,12.60
2023-03-24T21:45:23.208Z,12.50
2023-03-24T21:47:54.500Z,12.40
2023-03-24T21:50:23.975Z,12.40
2023-03-24T21:52:54.731Z,12.40
2023-03-24T21:55:25.280Z,12.40
2023-03-24T21:57:53.622Z,12.40
2023-03-24T22:00:23.630Z,12.40
2023-03-24T22:02:53.324Z,12.50
2023-03-24T22:05:23.389Z,12.50
2023-03-24T22:07:53.970Z,12.40
2023-03-24T22:10:23.074Z,12.40
2023-03-24T22:12:52.119Z,12.30
2023-03-24T22:15:20.752Z,12.30
2023-03-24T22:17:48.800Z,12.30
2023-03-24T22:20:17.185Z,12.30
2023-03-24T22:22:53.267Z,12.30
2023-03-24T22:25:24.618Z,12.20
2023-03-24T22:27:55.310Z,12.20
2023-03-24T22:30:23.899Z,12.30
2023-03-24T22:32:52.047Z,12.30
2023-03-24T22:35:21.291Z,12.30
2023-03-24T22:37:49.489Z,12.20
2023-03-24T22:40:17.616Z,12.30
2023-03-24T22:42:46.929Z,12.30
2023-03-24T22:45:14.944Z,12.20
2023-03-24T22:47:42.992Z,12.20
2023-03-24T22:50:11.462Z,12.20
2023-03-24T22:52:39.457Z,12.20
2023-03-24T22:55:09.883Z,12.20
2023-03-24T22:57:38.022Z,12.30
2023-03-24T23:00:09.023Z,12.40
2023-03-24T23:02:37.111Z,12.30
2023-03-24T23:05:05.629Z,12.30
2023-03-24T23:07:34.835Z,12.30
2023-03-24T23:10:06.395Z,12.30
2023-03-24T23:12:34.383Z,12.40
2023-03-24T23:15:02.398Z,12.40
2023-03-24T23:17:31.809Z,12.40
2023-03-24T23:19:59.927Z,12.40
2023-03-24T23:22:28.525Z,12.30
2023-03-24T23:25:01.239Z,12.30
2023-03-24T23:27:35.038Z,12.30
2023-03-24T23:30:03.216Z,12.30
2023-03-24T23:32:35.524Z,12.20
2023-03-24T23:35:04.098Z,12.30
2023-03-24T23:37:33.588Z,12.20
2023-03-24T23:40:09.491Z,12.20
2023-03-24T23:42:38.345Z,12.10
2023-03-24T23:45:07.340Z,12.10
2023-03-24T23:47:37.025Z,12.20
2023-03-24T23:50:06.164Z,12.10
2023-03-24T23:52:34.562Z,12.10
2023-03-24T23:55:03.410Z,12.10
2023-03-24T23:57:31.772Z,12.00
